Time,TemperatureF,DewpointF,PressureIn,WindDirection,WindDirectionDegrees,WindSpeedMPH,WindSpeedGustMPH,Humidity,HourlyPrecipIn,Conditions,Clouds,dailyrainin,SoftwareType,DateUTC
2013-05-26 00:03:00,46.4,37.2,30.36,ENE,62,0.0,0.0,70,0.00,,,0.00,meteohub,2013-05-26 05:03:00,
2013-05-26 00:08:00,46.2,37.0,30.36,ENE,62,0.0,0.0,70,0.00,,,0.00,meteohub,2013-05-26 05:08:00,
2013-05-26 00:13:00,46.2,37.8,30.36,ENE,62,0.0,0.0,72,0.00,,,0.00,meteohub,2013-05-26 05:13:00,
2013-05-26 00:18:00,46.0,37.6,30.36,ENE,62,0.0,0.0,72,0.00,,,0.00,meteohub,2013-05-26 05:18:00,
2013-05-26 00:23:00,46.0,37.6,30.35,ENE,62,0.0,0.0,72,0.00,,,0.00,meteohub,2013-05-26 05:23:00,
2013-05-26 00:28:00,46.0,37.6,30.35,ENE,62,0.0,0.0,72,0.00,,,0.00,meteohub,2013-05-26 05:28:00,
2013-05-26 00:33:00,45.9,37.0,30.36,ENE,62,0.0,0.0,71,0.00,,,0.00,meteohub,2013-05-26 05:33:00,
2013-05-26 00:38:00,45.7,37.6,30.36,ENE,62,0.0,0.0,73,0.00,,,0.00,meteohub,2013-05-26 05:38:00,
2013-05-26 00:44:00,45.5,37.8,30.36,ENE,62,0.0,0.0,74,0.00,,,0.00,meteohub,2013-05-26 05:44:00,
2013-05-26 00:49:00,45.3,37.6,30.36,ENE,62,0.0,0.0,74,0.00,,,0.00,meteohub,2013-05-26 05:49:00,
2013-05-26 00:54:00,45.0,37.6,30.36,ENE,62,0.0,0.0,75,0.00,,,0.00,meteohub,2013-05-26 05:54:00,
2013-05-26 00:59:00,44.8,37.4,30.36,ENE,62,0.0,0.0,75,0.00,,,0.00,meteohub,2013-05-26 05:59:00,
2013-05-26 01:04:00,44.6,36.9,30.36,ENE,62,0.0,0.0,74,0.00,,,0.00,meteohub,2013-05-26 06:04:00,
2013-05-26 01:09:00,44.4,37.0,30.36,ENE,62,0.0,0.0,75,0.00,,,0.00,meteohub,2013-05-26 06:09:00,
2013-05-26 01:14:00,44.4,36.7,30.36,ENE,62,0.0,0.0,74,0.00,,,0.00,meteohub,2013-05-26 06:14:00,
2013-05-26 01:19:00,44.2,36.5,30.36,ENE,62,0.0,0.0,74,0.00,,,0.00,meteohub,2013-05-26 06:19:00,
2013-05-26 01:24:00,44.2,36.5,30.36,ENE,62,0.0,0.0,74,0.00,,,0.00,meteohub,2013-05-26 06:24:00,
2013-05-26 01:29:00,44.2,36.5,30.35,ENE,62,0.0,0.0,74,0.00,,,0.00,meteohub,2013-05-26 06:29:00,
2013-05-26 01:34:00,44.2,35.8,30.35,ENE,62,0.0,0.0,72,0.00,,,0.00,meteohub,2013-05-26 06:34:00,
2013-05-26 01:39:00,44.2,36.9,30.35,ENE,62,0.0,0.0,75,0.00,,,0.00,meteohub,2013-05-26 06:39:00,
2013-05-26 01:44:00,44.2,37.2,30.35,ENE,62,0.0,0.0,76,0.00,,,0.00,meteohub,2013-05-26 06:44:00,
2013-05-26 01:49:00,44.1,37.0,30.34,ENE,62,0.0,0.0,76,0.00,,,0.00,meteohub,2013-05-26 06:49:00,
2013-05-26 01:54:00,43.9,37.2,30.34,ENE,62,0.0,0.0,77,0.00,,,0.00,meteohub,2013-05-26 06:54:00,
2013-05-26 01:59:00,43.7,36.7,30.34,ENE,62,0.0,0.0,76,0.00,,,0.00,meteohub,2013-05-26 06:59:00,
2013-05-26 02:04:00,43.5,37.0,30.34,ENE,62,0.0,0.0,78,0.00,,,0.00,meteohub,2013-05-26 07:04:00,
2013-05-26 02:09:00,43.3,36.7,30.34,ENE,62,0.0,0.0,77,0.00,,,0.00,meteohub,2013-05-26 07:09:00,
2013-05-26 02:14:00,43.3,37.6,30.33,ENE,62,0.0,0.0,80,0.00,,,0.00,meteohub,2013-05-26 07:14:00,
2013-05-26 02:20:00,43.2,36.7,30.33,ENE,62,0.0,0.0,78,0.00,,,0.00,meteohub,2013-05-26 07:20:00,
2013-05-26 02:25:00,43.0,37.2,30.34,ENE,62,0.0,0.0,80,0.00,,,0.00,meteohub,2013-05-26 07:25:00,
2013-05-26 02:30:00,43.0,37.2,30.34,ENE,62,0.0,0.0,80,0.00,,,0.00,meteohub,2013-05-26 07:30:00,
2013-05-26 02:35:00,42.8,37.4,30.33,ENE,62,0.0,0.0,81,0.00,,,0.00,meteohub,2013-05-26 07:35:00,
2013-05-26 02:40:00,42.6,37.2,30.33,ENE,62,0.0,0.0,81,0.00,,,0.00,meteohub,2013-05-26 07:40:00,
2013-05-26 02:45:00,42.6,37.6,30.33,ENE,62,0.0,0.0,82,0.00,,,0.00,meteohub,2013-05-26 07:45:00,
2013-05-26 02:50:00,42.6,36.9,30.33,ENE,62,0.0,0.0,80,0.00,,,0.00,meteohub,2013-05-26 07:50:00,
2013-05-26 02:55:00,42.4,37.4,30.34,ENE,62,0.0,0.0,82,0.00,,,0.00,meteohub,2013-05-26 07:55:00,
2013-05-26 03:00:00,42.3,37.2,30.34,ENE,62,0.0,0.0,82,0.00,,,0.00,meteohub,2013-05-26 08:00:00,
2013-05-26 03:05:00,42.1,37.6,30.34,ENE,62,0.0,0.0,84,0.00,,,0.00,meteohub,2013-05-26 08:05:00,
2013-05-26 03:10:00,41.9,37.8,30.34,ENE,62,0.0,0.0,85,0.00,,,0.00,meteohub,2013-05-26 08:10:00,
2013-05-26 03:15:00,41.7,37.6,30.34,ENE,62,0.0,0.0,85,0.00,,,0.00,meteohub,2013-05-26 08:15:00,
2013-05-26 03:20:00,41.7,37.8,30.34,ENE,62,0.0,0.0,86,0.00,,,0.00,meteohub,2013-05-26 08:20:00,
2013-05-26 03:25:00,41.7,38.5,30.34,ENE,62,0.0,0.0,88,0.00,,,0.00,meteohub,2013-05-26 08:25:00,
2013-05-26 03:30:00,41.7,38.7,30.33,ENE,62,0.0,0.0,89,0.00,,,0.00,meteohub,2013-05-26 08:30:00,
2013-05-26 03:35:00,41.7,38.7,30.33,ENE,62,0.0,0.0,89,0.00,,,0.00,meteohub,2013-05-26 08:35:00,
2013-05-26 03:40:00,41.7,39.0,30.33,ENE,62,0.0,0.0,90,0.00,,,0.00,meteohub,2013-05-26 08:40:00,
2013-05-26 03:45:00,41.9,39.2,30.33,ENE,62,0.0,0.0,90,0.00,,,0.00,meteohub,2013-05-26 08:45:00,
2013-05-26 03:50:00,42.1,39.6,30.33,ENE,62,0.0,1.0,91,0.00,,,0.00,meteohub,2013-05-26 08:50:00,
2013-05-26 03:56:00,42.1,39.6,30.33,ENE,62,0.0,1.0,91,0.00,,,0.00,meteohub,2013-05-26 08:56:00,
2013-05-26 04:01:00,42.1,39.6,30.33,ENE,62,0.0,1.0,91,0.00,,,0.00,meteohub,2013-05-26 09:01:00,
2013-05-26 04:06:00,42.3,39.7,30.33,ENE,62,0.0,0.0,91,0.00,,,0.00,meteohub,2013-05-26 09:06:00,
2013-05-26 04:11:00,42.3,39.6,30.33,ENE,62,0.0,0.0,90,0.00,,,0.00,meteohub,2013-05-26 09:11:00,
2013-05-26 04:16:00,42.1,39.0,30.33,ENE,62,0.0,0.0,89,0.00,,,0.00,meteohub,2013-05-26 09:16:00,
2013-05-26 04:21:00,42.1,39.0,30.33,ENE,62,0.0,0.0,89,0.00,,,0.00,meteohub,2013-05-26 09:21:00,
2013-05-26 04:26:00,41.9,38.7,30.34,ENE,62,0.0,0.0,88,0.00,,,0.00,meteohub,2013-05-26 09:26:00,
2013-05-26 04:31:00,41.7,38.5,30.34,ENE,62,0.0,0.0,88,0.00,,,0.00,meteohub,2013-05-26 09:31:00,
2013-05-26 04:36:00,41.7,38.1,30.33,NE,39,0.0,0.0,87,0.00,,,0.00,meteohub,2013-05-26 09:36:00,
2013-05-26 04:41:00,41.5,37.9,30.33,NE,39,0.0,2.0,87,0.00,,,0.00,meteohub,2013-05-26 09:41:00,
2013-05-26 04:46:00,41.5,37.9,30.33,NE,39,0.0,2.0,87,0.00,,,0.00,meteohub,2013-05-26 09:46:00,
2013-05-26 04:51:00,41.5,37.6,30.33,NE,39,0.0,2.0,86,0.00,,,0.00,meteohub,2013-05-26 09:51:00,
2013-05-26 04:56:00,41.4,37.2,30.33,NE,39,0.0,0.0,85,0.00,,,0.00,meteohub,2013-05-26 09:56:00,
2013-05-26 05:01:00,41.4,37.2,30.34,NE,39,0.0,0.0,85,0.00,,,0.00,meteohub,2013-05-26 10:01:00,
2013-05-26 05:06:00,41.2,36.7,30.34,NE,39,0.0,0.0,84,0.00,,,0.00,meteohub,2013-05-26 10:06:00,
2013-05-26 05:11:00,41.2,36.7,30.34,NE,39,0.0,0.0,84,0.00,,,0.00,meteohub,2013-05-26 10:11:00,
2013-05-26 05:16:00,41.2,37.0,30.34,NE,39,0.0,0.0,85,0.00,,,0.00,meteohub,2013-05-26 10:16:00,
2013-05-26 05:21:00,41.0,36.5,30.34,NE,39,0.0,0.0,84,0.00,,,0.00,meteohub,2013-05-26 10:21:00,
2013-05-26 05:26:00,40.8,36.7,30.34,NE,39,0.0,0.0,85,0.00,,,0.00,meteohub,2013-05-26 10:26:00,
2013-05-26 05:32:00,40.8,37.0,30.33,NE,39,0.0,0.0,86,0.00,,,0.00,meteohub,2013-05-26 10:32:00,
2013-05-26 05:37:00,40.6,37.0,30.32,NE,39,0.0,0.0,87,0.00,,,0.00,meteohub,2013-05-26 10:37:00,
2013-05-26 05:42:00,40.8,37.6,30.32,NE,39,0.0,0.0,88,0.00,,,0.00,meteohub,2013-05-26 10:42:00,
2013-05-26 05:47:00,40.8,37.6,30.32,East,81,0.0,1.0,88,0.00,,,0.00,meteohub,2013-05-26 10:47:00,
2013-05-26 05:52:00,41.0,37.8,30.32,East,81,0.0,1.0,88,0.00,,,0.00,meteohub,2013-05-26 10:52:00,
2013-05-26 05:57:00,41.2,37.9,30.33,East,81,0.0,1.0,88,0.00,,,0.00,meteohub,2013-05-26 10:57:00,
2013-05-26 06:02:00,41.7,37.8,30.33,East,81,0.0,0.0,86,0.00,,,0.00,meteohub,2013-05-26 11:02:00,
2013-05-26 06:07:00,42.3,37.4,30.33,ENE,61,0.0,0.0,83,0.00,,,0.00,meteohub,2013-05-26 11:07:00,
2013-05-26 06:12:00,42.6,37.6,30.34,ENE,61,0.0,2.0,82,0.00,,,0.00,meteohub,2013-05-26 11:12:00,
2013-05-26 06:17:00,43.2,38.1,30.34,ENE,61,0.0,2.0,82,0.00,,,0.00,meteohub,2013-05-26 11:17:00,
2013-05-26 06:22:00,43.5,38.5,30.34,ENE,61,0.0,0.0,82,0.00,,,0.00,meteohub,2013-05-26 11:22:00,
2013-05-26 06:27:00,44.1,38.8,30.34,ENE,61,0.0,0.0,82,0.00,,,0.00,meteohub,2013-05-26 11:27:00,
2013-05-26 06:32:00,44.4,39.0,30.35,ENE,61,0.0,0.0,81,0.00,,,0.00,meteohub,2013-05-26 11:32:00,
2013-05-26 06:37:00,44.8,39.4,30.35,ENE,61,0.0,0.0,81,0.00,,,0.00,meteohub,2013-05-26 11:37:00,
2013-05-26 06:42:00,45.1,39.7,30.35,ENE,61,0.0,0.0,81,0.00,,,0.00,meteohub,2013-05-26 11:42:00,
2013-05-26 06:47:00,45.3,39.9,30.35,ENE,61,0.0,0.0,81,0.00,,,0.00,meteohub,2013-05-26 11:47:00,
2013-05-26 06:52:00,45.9,40.1,30.35,ENE,61,0.0,0.0,80,0.00,,,0.00,meteohub,2013-05-26 11:52:00,
2013-05-26 06:57:00,46.2,39.4,30.35,ENE,63,0.0,0.0,77,0.00,,,0.00,meteohub,2013-05-26 11:57:00,
2013-05-26 07:02:00,46.6,39.7,30.35,ENE,63,0.0,1.0,77,0.00,,,0.00,meteohub,2013-05-26 12:02:00,
2013-05-26 07:07:00,46.9,39.7,30.34,ENE,67,0.0,1.0,76,0.00,,,0.00,meteohub,2013-05-26 12:07:00,
2013-05-26 07:12:00,47.5,40.3,30.34,ENE,67,0.0,1.0,76,0.00,,,0.00,meteohub,2013-05-26 12:12:00,
2013-05-26 07:17:00,47.8,41.0,30.34,ENE,67,0.0,1.0,77,0.00,,,0.00,meteohub,2013-05-26 12:17:00,
2013-05-26 07:22:00,48.0,40.5,30.33,East,88,0.0,1.0,75,0.00,,,0.00,meteohub,2013-05-26 12:22:00,
2013-05-26 07:27:00,48.0,40.5,30.34,East,84,0.0,1.0,75,0.00,,,0.00,meteohub,2013-05-26 12:27:00,
2013-05-26 07:32:00,48.2,41.0,30.34,East,96,0.0,2.0,76,0.00,,,0.00,meteohub,2013-05-26 12:32:00,
2013-05-26 07:37:00,48.4,40.8,30.34,ESE,117,0.0,2.0,75,0.00,,,0.00,meteohub,2013-05-26 12:37:00,
2013-05-26 07:42:00,48.6,41.4,30.34,ESE,110,0.0,2.0,76,0.00,,,0.00,meteohub,2013-05-26 12:42:00,
2013-05-26 07:47:00,48.7,41.2,30.34,ESE,103,0.0,2.0,75,0.00,,,0.00,meteohub,2013-05-26 12:47:00,
2013-05-26 07:52:00,49.3,41.7,30.34,East,82,0.0,1.0,75,0.00,,,0.00,meteohub,2013-05-26 12:52:00,
2013-05-26 07:57:00,50.2,42.3,30.35,ESE,113,0.0,2.0,74,0.00,,,0.00,meteohub,2013-05-26 12:57:00,
2013-05-26 08:02:00,50.9,42.3,30.35,East,80,0.0,3.0,72,0.00,,,0.00,meteohub,2013-05-26 13:02:00,
2013-05-26 08:07:00,51.6,43.0,30.35,NE,48,0.0,3.0,72,0.00,,,0.00,meteohub,2013-05-26 13:07:00,
2013-05-26 08:12:00,52.2,43.0,30.35,SE,136,0.0,3.0,71,0.00,,,0.00,meteohub,2013-05-26 13:12:00,
2013-05-26 08:17:00,52.5,43.3,30.34,SE,136,0.0,2.0,71,0.00,,,0.00,meteohub,2013-05-26 13:17:00,
2013-05-26 08:22:00,52.9,43.7,30.34,ENE,75,0.0,1.0,71,0.00,,,0.00,meteohub,2013-05-26 13:22:00,
2013-05-26 08:27:00,53.2,43.3,30.35,NNE,27,0.0,3.0,69,0.00,,,0.00,meteohub,2013-05-26 13:27:00,
2013-05-26 08:32:00,54.0,44.4,30.34,ENE,63,0.0,3.0,70,0.00,,,0.00,meteohub,2013-05-26 13:32:00,
2013-05-26 08:37:00,54.7,44.2,30.35,North,355,0.0,2.0,68,0.00,,,0.00,meteohub,2013-05-26 13:37:00,
2013-05-26 08:42:00,55.2,44.1,30.34,East,99,0.0,2.0,66,0.00,,,0.00,meteohub,2013-05-26 13:42:00,
2013-05-26 08:47:00,55.6,43.5,30.34,North,0,1.0,4.0,64,0.00,,,0.00,meteohub,2013-05-26 13:47:00,
2013-05-26 08:52:00,55.9,44.4,30.34,ESE,107,0.0,4.0,65,0.00,,,0.00,meteohub,2013-05-26 13:52:00,
2013-05-26 08:57:00,56.5,44.4,30.34,ESE,116,0.0,2.0,64,0.00,,,0.00,meteohub,2013-05-26 13:57:00,
2013-05-26 09:02:00,57.2,44.2,30.34,SSE,154,0.0,4.0,62,0.00,,,0.00,meteohub,2013-05-26 14:02:00,
2013-05-26 09:07:00,57.9,45.3,30.34,NE,47,0.0,4.0,63,0.00,,,0.00,meteohub,2013-05-26 14:07:00,
2013-05-26 09:12:00,58.5,45.5,30.34,ESE,105,0.0,5.0,62,0.00,,,0.00,meteohub,2013-05-26 14:12:00,
2013-05-26 09:17:00,58.8,45.0,30.33,ESE,113,0.0,5.0,60,0.00,,,0.00,meteohub,2013-05-26 14:17:00,
2013-05-26 09:22:00,59.0,45.1,30.33,East,97,1.0,4.0,60,0.00,,,0.00,meteohub,2013-05-26 14:22:00,
2013-05-26 09:27:00,59.2,44.8,30.33,East,93,0.0,4.0,59,0.00,,,0.00,meteohub,2013-05-26 14:27:00,
2013-05-26 09:32:00,59.5,45.1,30.33,East,91,1.0,5.0,59,0.00,,,0.00,meteohub,2013-05-26 14:32:00,
2013-05-26 09:37:00,60.4,45.1,30.33,ESE,105,0.0,5.0,57,0.00,,,0.00,meteohub,2013-05-26 14:37:00,
2013-05-26 09:42:00,61.0,46.0,30.34,South,182,0.0,5.0,58,0.00,,,0.00,meteohub,2013-05-26 14:42:00,
2013-05-26 09:47:00,61.3,46.0,30.34,South,173,0.0,4.0,57,0.00,,,0.00,meteohub,2013-05-26 14:47:00,
2013-05-26 09:52:00,61.5,45.1,30.33,East,85,1.0,5.0,55,0.00,,,0.00,meteohub,2013-05-26 14:52:00,
2013-05-26 09:57:00,62.1,45.7,30.33,ESE,107,4.0,7.0,55,0.00,,,0.00,meteohub,2013-05-26 14:57:00,
2013-05-26 10:02:00,63.0,46.0,30.33,East,87,1.0,7.0,54,0.00,,,0.00,meteohub,2013-05-26 15:02:00,
2013-05-26 10:07:00,64.0,45.5,30.33,ENE,71,0.0,7.0,51,0.00,,,0.00,meteohub,2013-05-26 15:07:00,
2013-05-26 10:12:00,64.6,46.0,30.33,SE,124,0.0,6.0,51,0.00,,,0.00,meteohub,2013-05-26 15:12:00,
2013-05-26 10:17:00,64.6,46.0,30.33,SE,133,0.0,6.0,51,0.00,,,0.00,meteohub,2013-05-26 15:17:00,
2013-05-26 10:22:00,64.0,45.0,30.33,ESE,117,0.0,6.0,50,0.00,,,0.00,meteohub,2013-05-26 15:22:00,
2013-05-26 10:27:00,64.6,45.5,30.33,East,101,0.0,6.0,50,0.00,,,0.00,meteohub,2013-05-26 15:27:00,
2013-05-26 10:32:00,64.9,44.8,30.33,ESE,115,0.0,6.0,48,0.00,,,0.00,meteohub,2013-05-26 15:32:00,
2013-05-26 10:37:00,64.8,44.1,30.33,East,83,1.0,8.0,47,0.00,,,0.00,meteohub,2013-05-26 15:37:00,
2013-05-26 10:42:00,64.6,44.4,30.33,SSE,159,0.0,8.0,48,0.00,,,0.00,meteohub,2013-05-26 15:42:00,
2013-05-26 10:47:00,64.6,44.4,30.33,SE,143,0.0,8.0,48,0.00,,,0.00,meteohub,2013-05-26 15:47:00,
2013-05-26 10:52:00,64.8,44.6,30.33,South,175,0.0,8.0,48,0.00,,,0.00,meteohub,2013-05-26 15:52:00,
2013-05-26 10:57:00,65.1,45.5,30.33,ENE,69,1.0,8.0,49,0.00,,,0.00,meteohub,2013-05-26 15:57:00,
2013-05-26 11:02:00,65.3,42.8,30.33,ESE,110,1.0,5.0,44,0.00,,,0.00,meteohub,2013-05-26 16:02:00,
2013-05-26 11:07:00,65.1,43.3,30.33,ENE,69,1.0,7.0,45,0.00,,,0.00,meteohub,2013-05-26 16:07:00,
2013-05-26 11:12:00,65.1,45.5,30.33,SSE,163,0.0,7.0,49,0.00,,,0.00,meteohub,2013-05-26 16:12:00,
2013-05-26 11:17:00,65.8,45.7,30.33,East,93,0.0,5.0,48,0.00,,,0.00,meteohub,2013-05-26 16:17:00,
2013-05-26 11:22:00,66.4,45.0,30.33,NE,34,5.0,8.0,46,0.00,,,0.00,meteohub,2013-05-26 16:22:00,
2013-05-26 11:27:00,66.6,46.2,30.33,ESE,111,0.0,8.0,48,0.00,,,0.00,meteohub,2013-05-26 16:27:00,
2013-05-26 11:32:00,66.9,43.7,30.33,NE,45,0.0,9.0,43,0.00,,,0.00,meteohub,2013-05-26 16:32:00,
2013-05-26 11:37:00,66.7,44.1,30.32,ESE,121,4.0,9.0,44,0.00,,,0.00,meteohub,2013-05-26 16:37:00,
2013-05-26 11:42:00,66.4,44.4,30.32,NNE,13,1.0,9.0,45,0.00,,,0.00,meteohub,2013-05-26 16:42:00,
2013-05-26 11:47:00,66.0,44.1,30.33,SSW,211,1.0,8.0,45,0.00,,,0.00,meteohub,2013-05-26 16:47:00,
2013-05-26 11:52:00,65.8,45.0,30.33,East,101,1.0,7.0,47,0.00,,,0.00,meteohub,2013-05-26 16:52:00,
2013-05-26 11:57:00,65.7,44.2,30.33,ESE,123,1.0,5.0,46,0.00,,,0.00,meteohub,2013-05-26 16:57:00,
2013-05-26 12:02:00,65.7,45.5,30.32,ENE,58,0.0,5.0,48,0.00,,,0.00,meteohub,2013-05-26 17:02:00,
2013-05-26 12:07:00,65.7,44.2,30.32,ENE,61,0.0,4.0,46,0.00,,,0.00,meteohub,2013-05-26 17:07:00,
2013-05-26 12:12:00,65.7,44.2,30.32,East,97,1.0,4.0,46,0.00,,,0.00,meteohub,2013-05-26 17:12:00,
2013-05-26 12:17:00,65.8,45.0,30.32,ENE,67,0.0,7.0,47,0.00,,,0.00,meteohub,2013-05-26 17:17:00,
2013-05-26 12:22:00,65.8,43.9,30.32,NNE,31,0.0,7.0,45,0.00,,,0.00,meteohub,2013-05-26 17:22:00,
2013-05-26 12:27:00,65.8,44.4,30.31,ESE,117,1.0,7.0,46,0.00,,,0.00,meteohub,2013-05-26 17:27:00,
2013-05-26 12:32:00,65.8,43.3,30.31,ESE,123,0.0,4.0,44,0.00,,,0.00,meteohub,2013-05-26 17:32:00,
2013-05-26 12:37:00,65.7,43.7,30.30,East,96,0.0,4.0,45,0.00,,,0.00,meteohub,2013-05-26 17:37:00,
2013-05-26 12:42:00,66.0,45.1,30.30,NE,44,0.0,6.0,47,0.00,,,0.00,meteohub,2013-05-26 17:42:00,
2013-05-26 12:47:00,66.0,44.1,30.30,East,90,2.0,6.0,45,0.00,,,0.00,meteohub,2013-05-26 17:47:00,
2013-05-26 12:52:00,66.2,45.3,30.30,NNE,30,0.0,6.0,47,0.00,,,0.00,meteohub,2013-05-26 17:52:00,
2013-05-26 12:57:00,66.0,42.8,30.30,East,98,3.0,6.0,43,0.00,,,0.00,meteohub,2013-05-26 17:57:00,
2013-05-26 13:02:00,65.8,44.4,30.29,ESE,103,0.0,8.0,46,0.00,,,0.00,meteohub,2013-05-26 18:02:00,
2013-05-26 13:07:00,66.4,43.9,30.29,ENE,73,0.0,8.0,44,0.00,,,0.00,meteohub,2013-05-26 18:07:00,
2013-05-26 13:12:00,66.7,44.8,30.29,ESE,113,1.0,8.0,45,0.00,,,0.00,meteohub,2013-05-26 18:12:00,
2013-05-26 13:17:00,67.3,43.3,30.28,ESE,102,4.0,8.0,42,0.00,,,0.00,meteohub,2013-05-26 18:17:00,
2013-05-26 13:22:00,67.6,45.0,30.28,East,85,0.0,8.0,44,0.00,,,0.00,meteohub,2013-05-26 18:22:00,
2013-05-26 13:27:00,68.0,45.3,30.28,ENE,78,0.0,8.0,44,0.00,,,0.00,meteohub,2013-05-26 18:27:00,
2013-05-26 13:32:00,68.2,43.5,30.28,ESE,117,0.0,9.0,41,0.00,,,0.00,meteohub,2013-05-26 18:32:00,
2013-05-26 13:37:00,67.6,43.7,30.28,ESE,109,0.0,9.0,42,0.00,,,0.00,meteohub,2013-05-26 18:37:00,
2013-05-26 13:42:00,67.5,44.8,30.27,North,11,1.0,9.0,44,0.00,,,0.00,meteohub,2013-05-26 18:42:00,
2013-05-26 13:47:00,67.5,43.5,30.28,ESE,111,2.0,8.0,42,0.00,,,0.00,meteohub,2013-05-26 18:47:00,
2013-05-26 13:52:00,67.3,44.6,30.28,South,169,1.0,8.0,44,0.00,,,0.00,meteohub,2013-05-26 18:52:00,
2013-05-26 13:57:00,67.3,42.8,30.27,ESE,113,1.0,8.0,41,0.00,,,0.00,meteohub,2013-05-26 18:57:00,
2013-05-26 14:02:00,67.3,43.3,30.28,ESE,123,2.0,7.0,42,0.00,,,0.00,meteohub,2013-05-26 19:02:00,
2013-05-26 14:07:00,67.3,42.1,30.28,East,98,1.0,9.0,40,0.00,,,0.00,meteohub,2013-05-26 19:07:00,
2013-05-26 14:12:00,67.3,42.8,30.28,East,82,0.0,9.0,41,0.00,,,0.00,meteohub,2013-05-26 19:12:00,
2013-05-26 14:17:00,67.5,43.5,30.28,South,170,1.0,9.0,42,0.00,,,0.00,meteohub,2013-05-26 19:17:00,
2013-05-26 14:22:00,67.5,44.8,30.28,NW,309,0.0,9.0,44,0.00,,,0.00,meteohub,2013-05-26 19:22:00,
2013-05-26 14:27:00,67.6,43.7,30.28,ESE,105,2.0,9.0,42,0.00,,,0.00,meteohub,2013-05-26 19:27:00,
2013-05-26 14:32:00,67.5,44.2,30.28,South,172,0.0,6.0,43,0.00,,,0.00,meteohub,2013-05-26 19:32:00,
2013-05-26 14:37:00,66.7,43.0,30.28,South,178,0.0,6.0,42,0.00,,,0.00,meteohub,2013-05-26 19:37:00,
2013-05-26 14:42:00,66.4,43.9,30.27,ENE,74,0.0,9.0,44,0.00,,,0.00,meteohub,2013-05-26 19:42:00,
2013-05-26 14:47:00,65.8,43.3,30.27,ESE,121,1.0,9.0,44,0.00,,,0.00,meteohub,2013-05-26 19:47:00,
2013-05-26 14:52:00,65.8,43.9,30.28,ENE,60,1.0,9.0,45,0.00,,,0.00,meteohub,2013-05-26 19:52:00,
2013-05-26 14:57:00,65.8,43.9,30.28,ESE,107,2.0,8.0,45,0.00,,,0.00,meteohub,2013-05-26 19:57:00,
2013-05-26 15:02:00,65.7,43.7,30.28,SE,138,1.0,8.0,45,0.00,,,0.00,meteohub,2013-05-26 20:02:00,
2013-05-26 15:07:00,65.5,43.0,30.28,SE,126,1.0,6.0,44,0.00,,,0.00,meteohub,2013-05-26 20:07:00,
2013-05-26 15:12:00,65.3,44.6,30.27,SE,134,0.0,6.0,47,0.00,,,0.00,meteohub,2013-05-26 20:12:00,
2013-05-26 15:17:00,65.1,44.4,30.27,ESE,105,0.0,6.0,47,0.00,,,0.00,meteohub,2013-05-26 20:17:00,
2013-05-26 15:22:00,64.8,44.6,30.27,ESE,107,1.0,6.0,48,0.00,,,0.00,meteohub,2013-05-26 20:22:00,
2013-05-26 15:27:00,64.6,44.4,30.27,ESE,105,0.0,6.0,48,0.00,,,0.00,meteohub,2013-05-26 20:27:00,
2013-05-26 15:32:00,64.2,44.1,30.27,ESE,116,1.0,6.0,48,0.00,,,0.00,meteohub,2013-05-26 20:32:00,
2013-05-26 15:37:00,64.0,45.0,30.27,ESE,123,0.0,5.0,50,0.00,,,0.00,meteohub,2013-05-26 20:37:00,
2013-05-26 15:42:00,64.0,44.4,30.27,East,99,2.0,5.0,49,0.00,,,0.00,meteohub,2013-05-26 20:42:00,
2013-05-26 15:48:00,64.0,45.5,30.27,NE,36,0.0,5.0,51,0.00,,,0.00,meteohub,2013-05-26 20:48:00,
2013-05-26 15:53:00,63.9,44.8,30.27,SSE,148,0.0,5.0,50,0.00,,,0.00,meteohub,2013-05-26 20:53:00,
2013-05-26 15:58:00,63.9,45.9,30.26,East,92,0.0,5.0,52,0.00,,,0.00,meteohub,2013-05-26 20:58:00,
2013-05-26 16:03:00,63.5,46.0,30.26,East,92,0.0,3.0,53,0.00,,,0.00,meteohub,2013-05-26 21:03:00,
2013-05-26 16:08:00,63.1,46.8,30.26,East,94,0.0,7.0,55,0.00,,,0.00,meteohub,2013-05-26 21:08:00,
2013-05-26 16:13:00,63.0,47.5,30.25,ENE,76,0.0,7.0,57,0.00,,,0.00,meteohub,2013-05-26 21:13:00,
2013-05-26 16:18:00,63.0,46.9,30.25,ENE,69,1.0,7.0,56,0.00,,,0.00,meteohub,2013-05-26 21:18:00,
2013-05-26 16:23:00,62.4,46.9,30.25,ENE,74,1.0,5.0,57,0.00,,,0.00,meteohub,2013-05-26 21:23:00,
2013-05-26 16:28:00,62.1,47.1,30.25,SE,127,1.0,4.0,58,0.00,,,0.00,meteohub,2013-05-26 21:28:00,
2013-05-26 16:33:00,61.5,48.4,30.25,ESE,115,1.0,5.0,62,0.00,,,0.00,meteohub,2013-05-26 21:33:00,
2013-05-26 16:38:00,61.2,49.3,30.25,WNW,290,0.0,5.0,65,0.00,,,0.00,meteohub,2013-05-26 21:38:00,
2013-05-26 16:43:00,60.6,48.4,30.25,SE,134,0.0,5.0,64,0.00,,,0.00,meteohub,2013-05-26 21:43:00,
2013-05-26 16:48:00,60.3,49.3,30.24,SSE,155,0.0,4.0,67,0.00,,,0.00,meteohub,2013-05-26 21:48:00,
2013-05-26 16:53:00,59.7,48.7,30.24,ENE,64,0.0,5.0,67,0.00,,,0.00,meteohub,2013-05-26 21:53:00,
2013-05-26 16:58:00,59.5,49.3,30.24,SE,142,0.0,5.0,69,0.00,,,0.00,meteohub,2013-05-26 21:58:00,
2013-05-26 17:03:00,59.4,50.0,30.23,East,101,0.0,2.0,71,0.01,,,0.01,meteohub,2013-05-26 22:03:00,
2013-05-26 17:08:00,59.0,50.4,30.23,East,80,0.0,2.0,73,0.01,,,0.01,meteohub,2013-05-26 22:08:00,
2013-05-26 17:14:00,58.6,50.0,30.23,East,80,0.0,3.0,73,0.01,,,0.01,meteohub,2013-05-26 22:14:00,
2013-05-26 17:19:00,58.3,50.0,30.24,East,80,0.0,3.0,74,0.01,,,0.01,meteohub,2013-05-26 22:19:00,
2013-05-26 17:24:00,57.7,50.2,30.24,East,80,0.0,3.0,76,0.01,,,0.01,meteohub,2013-05-26 22:24:00,
2013-05-26 17:29:00,57.4,50.5,30.24,East,80,0.0,0.0,78,0.01,,,0.01,meteohub,2013-05-26 22:29:00,
2013-05-26 17:34:00,57.0,50.9,30.24,East,80,0.0,0.0,80,0.02,,,0.02,meteohub,2013-05-26 22:34:00,
2013-05-26 17:39:00,56.7,51.3,30.23,East,80,0.0,0.0,82,0.02,,,0.02,meteohub,2013-05-26 22:39:00,
2013-05-26 17:44:00,56.7,52.2,30.23,East,80,0.0,0.0,85,0.02,,,0.02,meteohub,2013-05-26 22:44:00,
2013-05-26 17:49:00,56.3,51.3,30.23,East,80,0.0,0.0,83,0.03,,,0.03,meteohub,2013-05-26 22:49:00,
2013-05-26 17:54:00,55.9,51.3,30.23,East,80,0.0,0.0,84,0.03,,,0.03,meteohub,2013-05-26 22:54:00,
2013-05-26 17:59:00,55.8,51.1,30.23,East,80,0.0,0.0,84,0.03,,,0.03,meteohub,2013-05-26 22:59:00,
2013-05-26 18:04:00,55.6,51.1,30.24,East,80,0.0,0.0,85,0.02,,,0.03,meteohub,2013-05-26 23:04:00,
2013-05-26 18:09:00,55.4,50.9,30.24,East,80,0.0,0.0,85,0.02,,,0.03,meteohub,2013-05-26 23:09:00,
2013-05-26 18:14:00,55.6,51.4,30.24,East,80,0.0,0.0,86,0.02,,,0.03,meteohub,2013-05-26 23:14:00,
2013-05-26 18:19:00,55.4,51.3,30.24,East,80,0.0,0.0,86,0.02,,,0.03,meteohub,2013-05-26 23:19:00,
2013-05-26 18:24:00,55.4,51.6,30.24,East,80,0.0,0.0,87,0.02,,,0.03,meteohub,2013-05-26 23:24:00,
2013-05-26 18:29:00,55.2,51.4,30.23,East,80,0.0,0.0,87,0.02,,,0.03,meteohub,2013-05-26 23:29:00,
2013-05-26 18:34:00,55.2,52.0,30.22,East,80,0.0,0.0,89,0.01,,,0.03,meteohub,2013-05-26 23:34:00,
2013-05-26 18:39:00,55.0,51.6,30.22,East,80,0.0,0.0,88,0.01,,,0.03,meteohub,2013-05-26 23:39:00,
2013-05-26 18:44:00,55.0,51.6,30.22,East,80,0.0,0.0,88,0.00,,,0.03,meteohub,2013-05-26 23:44:00,
2013-05-26 18:50:00,55.0,51.3,30.22,East,80,0.0,0.0,87,0.00,,,0.03,meteohub,2013-05-26 23:50:00,
2013-05-26 18:55:00,54.9,51.4,30.22,East,80,0.0,0.0,88,0.00,,,0.03,meteohub,2013-05-26 23:55:00,
2013-05-26 19:00:00,54.9,51.1,30.22,East,80,0.0,0.0,87,0.00,,,0.03,meteohub,2013-05-27 00:00:00,
2013-05-26 19:05:00,54.7,50.5,30.22,East,80,0.0,0.0,86,0.00,,,0.00,meteohub,2013-05-27 00:05:00,
2013-05-26 19:10:00,54.7,50.9,30.22,East,80,0.0,0.0,87,0.00,,,0.00,meteohub,2013-05-27 00:10:00,
2013-05-26 19:15:00,54.7,51.3,30.22,East,80,0.0,0.0,88,0.00,,,0.00,meteohub,2013-05-27 00:15:00,
2013-05-26 19:20:00,54.7,51.4,30.22,East,80,0.0,0.0,89,0.00,,,0.00,meteohub,2013-05-27 00:20:00,
2013-05-26 19:25:00,54.7,51.4,30.21,East,80,0.0,0.0,89,0.00,,,0.00,meteohub,2013-05-27 00:25:00,
2013-05-26 19:30:00,54.5,51.3,30.22,East,80,0.0,0.0,89,0.00,,,0.00,meteohub,2013-05-27 00:30:00,
2013-05-26 19:35:00,54.3,50.9,30.22,East,80,0.0,0.0,88,0.00,,,0.00,meteohub,2013-05-27 00:35:00,
2013-05-26 19:40:00,54.3,50.9,30.21,East,80,0.0,0.0,88,0.00,,,0.00,meteohub,2013-05-27 00:40:00,
2013-05-26 19:45:00,54.3,50.9,30.21,East,80,0.0,0.0,88,0.00,,,0.00,meteohub,2013-05-27 00:45:00,
2013-05-26 19:50:00,54.3,50.9,30.21,NE,38,0.0,5.0,88,0.00,,,0.00,meteohub,2013-05-27 00:50:00,
2013-05-26 19:55:00,54.3,50.5,30.20,NE,38,0.0,5.0,87,0.00,,,0.00,meteohub,2013-05-27 00:55:00,
2013-05-26 20:00:00,54.3,50.2,30.20,NE,38,0.0,5.0,86,0.00,,,0.00,meteohub,2013-05-27 01:00:00,
2013-05-26 20:05:00,54.3,49.8,30.21,NNE,24,1.0,0.0,85,0.00,,,0.00,meteohub,2013-05-27 01:05:00,
2013-05-26 20:10:00,54.3,49.6,30.21,East,80,0.0,2.0,84,0.00,,,0.00,meteohub,2013-05-27 01:10:00,
2013-05-26 20:16:00,54.3,49.8,30.22,ENE,63,0.0,2.0,85,0.00,,,0.00,meteohub,2013-05-27 01:16:00,
2013-05-26 20:21:00,54.1,49.5,30.22,ENE,63,0.0,2.0,84,0.00,,,0.00,meteohub,2013-05-27 01:21:00,
2013-05-26 20:26:00,54.1,49.5,30.22,ENE,63,0.0,1.0,84,0.00,,,0.00,meteohub,2013-05-27 01:26:00,
2013-05-26 20:31:00,54.0,49.3,30.22,ENE,63,0.0,0.0,84,0.00,,,0.00,meteohub,2013-05-27 01:31:00,
2013-05-26 20:36:00,54.0,49.3,30.22,ENE,63,0.0,0.0,84,0.00,,,0.00,meteohub,2013-05-27 01:36:00,
2013-05-26 20:41:00,53.8,49.5,30.22,ENE,63,0.0,0.0,85,0.00,,,0.00,meteohub,2013-05-27 01:41:00,
2013-05-26 20:46:00,53.8,49.5,30.22,ENE,63,0.0,0.0,85,0.00,,,0.00,meteohub,2013-05-27 01:46:00,
2013-05-26 20:51:00,53.6,49.3,30.22,ENE,63,0.0,0.0,85,0.00,,,0.00,meteohub,2013-05-27 01:51:00,
2013-05-26 20:56:00,53.6,48.9,30.22,East,82,0.0,3.0,84,0.00,,,0.00,meteohub,2013-05-27 01:56:00,
2013-05-26 21:01:00,53.8,49.5,30.22,East,82,0.0,3.0,85,0.00,,,0.00,meteohub,2013-05-27 02:01:00,
2013-05-26 21:06:00,53.6,48.2,30.22,East,82,0.0,3.0,82,0.00,,,0.00,meteohub,2013-05-27 02:06:00,
2013-05-26 21:11:00,53.4,47.7,30.22,ENE,77,0.0,0.0,81,0.00,,,0.00,meteohub,2013-05-27 02:11:00,
2013-05-26 21:16:00,53.6,47.8,30.22,NNE,28,0.0,2.0,81,0.00,,,0.00,meteohub,2013-05-27 02:16:00,
2013-05-26 21:22:00,53.6,48.6,30.22,NNE,29,0.0,2.0,83,0.00,,,0.00,meteohub,2013-05-27 02:22:00,
2013-05-26 21:27:00,53.4,47.7,30.22,NNE,29,0.0,2.0,81,0.00,,,0.00,meteohub,2013-05-27 02:27:00,
2013-05-26 21:32:00,53.4,47.7,30.22,NE,35,0.0,1.0,81,0.00,,,0.00,meteohub,2013-05-27 02:32:00,
2013-05-26 21:37:00,53.4,47.1,30.22,ESE,122,0.0,0.0,79,0.00,,,0.00,meteohub,2013-05-27 02:37:00,
2013-05-26 21:42:00,53.4,46.8,30.22,NNE,28,0.0,4.0,78,0.00,,,0.00,meteohub,2013-05-27 02:42:00,
2013-05-26 21:47:00,53.2,46.2,30.22,NE,48,0.0,4.0,77,0.00,,,0.00,meteohub,2013-05-27 02:47:00,
2013-05-26 21:52:00,53.2,45.9,30.22,ENE,62,0.0,3.0,76,0.00,,,0.00,meteohub,2013-05-27 02:52:00,
2013-05-26 21:57:00,53.1,45.3,30.21,NNE,19,0.0,3.0,75,0.00,,,0.00,meteohub,2013-05-27 02:57:00,
2013-05-26 22:02:00,53.1,45.7,30.22,North,5,0.0,5.0,76,0.00,,,0.00,meteohub,2013-05-27 03:02:00,
2013-05-26 22:07:00,52.9,45.1,30.22,ENE,76,0.0,6.0,75,0.00,,,0.00,meteohub,2013-05-27 03:07:00,
2013-05-26 22:12:00,52.7,45.0,30.22,ENE,65,2.0,6.0,75,0.00,,,0.00,meteohub,2013-05-27 03:12:00,
2013-05-26 22:17:00,52.5,44.8,30.22,North,355,0.0,6.0,75,0.00,,,0.00,meteohub,2013-05-27 03:17:00,
2013-05-26 22:22:00,52.5,44.4,30.21,SE,135,0.0,6.0,74,0.00,,,0.00,meteohub,2013-05-27 03:22:00,
2013-05-26 22:27:00,52.3,44.2,30.22,ESE,107,0.0,6.0,74,0.00,,,0.00,meteohub,2013-05-27 03:27:00,
2013-05-26 22:32:00,52.3,44.2,30.22,East,83,0.0,6.0,74,0.00,,,0.00,meteohub,2013-05-27 03:32:00,
2013-05-26 22:37:00,52.2,44.1,30.22,ESE,119,1.0,4.0,74,0.00,,,0.00,meteohub,2013-05-27 03:37:00,
2013-05-26 22:42:00,52.2,44.1,30.21,ESE,109,0.0,2.0,74,0.00,,,0.00,meteohub,2013-05-27 03:42:00,
2013-05-26 22:47:00,52.2,44.1,30.21,NNE,28,0.0,3.0,74,0.00,,,0.00,meteohub,2013-05-27 03:47:00,
2013-05-26 22:52:00,52.2,44.4,30.21,NNE,30,0.0,3.0,75,0.00,,,0.00,meteohub,2013-05-27 03:52:00,
2013-05-26 22:57:00,52.2,44.4,30.21,NNE,30,1.0,3.0,75,0.00,,,0.00,meteohub,2013-05-27 03:57:00,
2013-05-26 23:01:00,52.2,44.4,30.22,ESE,107,0.0,1.0,75,0.00,,,0.00,meteohub,2013-05-27 04:01:00,
2013-05-26 23:02:00,52.2,44.4,30.22,ESE,107,0.0,1.0,75,0.00,,,0.00,meteohub,2013-05-27 04:02:00,
2013-05-26 23:03:00,52.2,44.4,30.21,ESE,107,0.0,1.0,75,0.00,,,0.00,meteohub,2013-05-27 04:03:00,
2013-05-26 23:08:00,52.2,44.4,30.21,SE,128,0.0,2.0,75,0.00,,,0.00,meteohub,2013-05-27 04:08:00,
2013-05-26 23:13:00,52.2,44.1,30.21,NNE,25,0.0,2.0,74,0.00,,,0.00,meteohub,2013-05-27 04:13:00,
2013-05-26 23:18:00,52.2,44.4,30.21,NE,50,0.0,2.0,75,0.00,,,0.00,meteohub,2013-05-27 04:18:00,
2013-05-26 23:23:00,52.2,44.1,30.21,NNW,338,1.0,4.0,74,0.00,,,0.00,meteohub,2013-05-27 04:23:00,
2013-05-26 23:28:00,52.2,43.7,30.21,ENE,59,0.0,7.0,73,0.00,,,0.00,meteohub,2013-05-27 04:28:00,
2013-05-26 23:33:00,52.2,43.7,30.21,ENE,71,0.0,7.0,73,0.00,,,0.00,meteohub,2013-05-27 04:33:00,
2013-05-26 23:39:00,52.2,43.3,30.21,ENE,64,0.0,7.0,72,0.00,,,0.00,meteohub,2013-05-27 04:39:00,
2013-05-26 23:44:00,52.2,43.3,30.21,ENE,65,0.0,2.0,72,0.00,,,0.00,meteohub,2013-05-27 04:44:00,
2013-05-26 23:49:00,52.2,43.3,30.21,NNE,26,2.0,3.0,72,0.00,,,0.00,meteohub,2013-05-27 04:49:00,
2013-05-26 23:54:00,52.3,43.2,30.21,NE,42,0.0,3.0,71,0.00,,,0.00,meteohub,2013-05-27 04:54:00,
2013-05-26 23:59:00,52.3,43.2,30.21,NE,55,0.0,3.0,71,0.00,,,0.00,meteohub,2013-05-27 04:59:00,